Time,TemperatureF,DewpointF,PressureIn,WindDirection,WindDirectionDegrees,WindSpeedMPH,WindSpeedGustMPH,Humidity,HourlyPrecipIn,Conditions,Clouds,dailyrainin,SoftwareType,DateUTC
2013-07-10 00:01:00,71.6,67.9,29.95,North,-999,-999.0,0.0,88,0.07,,---,0.00,VWS V14.01,2013-07-10 04:01:00,
2013-07-10 00:03:00,71.6,67.9,29.95,North,-999,-999.0,0.0,88,0.06,,---,0.00,VWS V14.01,2013-07-10 04:03:00,
2013-07-10 00:05:00,71.6,67.9,29.96,North,-999,-999.0,0.0,88,0.06,,---,0.00,VWS V14.01,2013-07-10 04:05:00,
2013-07-10 00:07:00,71.6,67.9,29.96,North,-999,-999.0,0.0,88,0.06,,---,0.00,VWS V14.01,2013-07-10 04:07:00,
2013-07-10 00:13:00,71.6,67.9,29.96,North,-999,-999.0,0.0,88,0.04,,---,0.00,VWS V14.01,2013-07-10 04:13:00,
2013-07-10 00:18:00,71.5,67.8,29.97,North,-999,-999.0,0.0,88,0.03,,---,0.00,VWS V14.01,2013-07-10 04:18:00,
2013-07-10 00:23:00,71.5,67.8,29.97,North,-999,-999.0,0.0,88,0.01,,---,0.00,VWS V14.01,2013-07-10 04:23:00,
2013-07-10 00:28:00,71.5,67.8,29.97,North,-999,-999.0,0.0,88,0.00,,---,0.00,VWS V14.01,2013-07-10 04:28:00,
2013-07-10 00:33:00,71.3,67.6,29.97,North,-999,-999.0,0.0,88,0.00,,---,0.00,VWS V14.01,2013-07-10 04:33:00,
2013-07-10 00:38:00,71.3,67.6,29.96,North,-999,-999.0,0.0,88,0.00,,---,0.00,VWS V14.01,2013-07-10 04:38:00,
2013-07-10 00:43:00,71.3,67.9,29.96,North,-999,-999.0,0.0,89,0.00,,---,0.00,VWS V14.01,2013-07-10 04:43:00,
2013-07-10 00:48:00,71.3,67.9,29.96,North,-999,-999.0,0.0,89,0.00,,---,0.00,VWS V14.01,2013-07-10 04:48:00,
2013-07-10 00:53:00,71.3,67.9,29.95,North,-999,-999.0,0.0,89,0.00,,---,0.00,VWS V14.01,2013-07-10 04:53:00,
2013-07-10 00:58:00,71.3,67.9,29.95,North,-999,-999.0,0.0,89,0.00,,---,0.00,VWS V14.01,2013-07-10 04:58:00,
2013-07-10 01:04:00,71.3,67.9,29.95,North,-999,-999.0,0.0,89,0.00,,---,0.00,VWS V14.01,2013-07-10 05:04:00,
2013-07-10 01:09:00,71.3,67.9,29.95,North,-999,-999.0,0.0,89,0.00,,---,0.00,VWS V14.01,2013-07-10 05:09:00,
2013-07-10 01:14:00,71.5,68.1,29.94,North,-999,-999.0,0.0,89,0.01,,---,0.01,VWS V14.01,2013-07-10 05:14:00,
2013-07-10 01:19:00,71.3,68.2,29.94,North,-999,-999.0,0.0,90,0.01,,---,0.01,VWS V14.01,2013-07-10 05:19:00,
2013-07-10 01:24:00,71.3,68.2,29.93,North,-999,-999.0,0.0,90,0.01,,---,0.01,VWS V14.01,2013-07-10 05:24:00,
2013-07-10 01:29:00,71.1,68.0,29.92,North,-999,-999.0,0.0,90,0.01,,---,0.01,VWS V14.01,2013-07-10 05:29:00,
2013-07-10 01:34:00,71.1,68.0,29.92,North,-999,-999.0,0.0,90,0.02,,---,0.02,VWS V14.01,2013-07-10 05:34:00,
2013-07-10 01:39:00,71.1,68.0,29.92,North,-999,-999.0,0.0,90,0.02,,---,0.02,VWS V14.01,2013-07-10 05:39:00,
2013-07-10 01:44:00,71.1,68.0,29.92,North,-999,-999.0,0.0,90,0.02,,---,0.02,VWS V14.01,2013-07-10 05:44:00,
2013-07-10 01:49:00,71.1,68.0,29.92,North,-999,-999.0,0.0,90,0.03,,---,0.03,VWS V14.01,2013-07-10 05:49:00,
2013-07-10 01:54:00,70.9,67.8,29.91,North,-999,-999.0,0.0,90,0.03,,---,0.03,VWS V14.01,2013-07-10 05:54:00,
2013-07-10 01:59:00,70.9,67.8,29.91,North,-999,-999.0,0.0,90,0.04,,---,0.04,VWS V14.01,2013-07-10 05:59:00,
2013-07-10 02:05:00,71.1,68.0,29.90,North,-999,-999.0,0.0,90,0.04,,---,0.04,VWS V14.01,2013-07-10 06:05:00,
2013-07-10 02:10:00,71.1,68.0,29.90,North,-999,-999.0,0.0,90,0.04,,---,0.04,VWS V14.01,2013-07-10 06:10:00,
2013-07-10 02:15:00,70.9,67.8,29.90,North,-999,-999.0,0.0,90,0.03,,---,0.04,VWS V14.01,2013-07-10 06:15:00,
2013-07-10 02:20:00,70.9,67.8,29.90,North,-999,-999.0,0.0,90,0.03,,---,0.04,VWS V14.01,2013-07-10 06:20:00,
2013-07-10 02:25:00,71.1,68.0,29.89,North,-999,-999.0,0.0,90,0.03,,---,0.04,VWS V14.01,2013-07-10 06:25:00,
2013-07-10 02:30:00,71.1,68.0,29.90,North,-999,-999.0,0.0,90,0.03,,---,0.04,VWS V14.01,2013-07-10 06:30:00,
2013-07-10 02:35:00,71.1,68.0,29.90,North,-999,-999.0,0.0,90,0.02,,---,0.04,VWS V14.01,2013-07-10 06:35:00,
2013-07-10 02:40:00,71.1,68.0,29.90,North,-999,-999.0,0.0,90,0.02,,---,0.04,VWS V14.01,2013-07-10 06:40:00,
2013-07-10 02:45:00,71.1,68.0,29.89,North,-999,-999.0,0.0,90,0.02,,---,0.04,VWS V14.01,2013-07-10 06:45:00,
2013-07-10 02:50:00,71.1,68.0,29.89,North,-999,-999.0,0.0,90,0.01,,---,0.04,VWS V14.01,2013-07-10 06:50:00,
2013-07-10 02:55:00,71.1,68.3,29.90,North,-999,-999.0,0.0,91,0.01,,---,0.04,VWS V14.01,2013-07-10 06:55:00,
2013-07-10 03:01:00,71.3,68.5,29.90,North,-999,-999.0,0.0,91,0.00,,---,0.04,VWS V14.01,2013-07-10 07:01:00,
2013-07-10 03:06:00,71.3,68.2,29.90,North,-999,-999.0,0.0,90,0.00,,---,0.04,VWS V14.01,2013-07-10 07:06:00,
2013-07-10 03:12:00,71.3,68.5,29.90,North,-999,-999.0,0.0,91,0.00,,---,0.04,VWS V14.01,2013-07-10 07:12:00,
2013-07-10 03:17:00,71.3,68.2,29.90,North,-999,-999.0,0.0,90,0.00,,---,0.04,VWS V14.01,2013-07-10 07:17:00,
2013-07-10 03:22:00,71.3,68.2,29.89,North,-999,-999.0,0.0,90,0.00,,---,0.04,VWS V14.01,2013-07-10 07:22:00,
2013-07-10 03:27:00,71.1,68.0,29.89,North,-999,-999.0,0.0,90,0.00,,---,0.04,VWS V14.01,2013-07-10 07:27:00,
2013-07-10 03:32:00,70.9,68.2,29.89,North,-999,-999.0,0.0,91,0.00,,---,0.04,VWS V14.01,2013-07-10 07:32:00,
2013-07-10 03:37:00,70.9,68.2,29.89,North,-999,-999.0,0.0,91,0.00,,---,0.04,VWS V14.01,2013-07-10 07:37:00,
2013-07-10 03:42:00,70.9,68.2,29.90,North,-999,-999.0,0.0,91,0.00,,---,0.04,VWS V14.01,2013-07-10 07:42:00,
2013-07-10 03:47:00,70.9,68.2,29.90,North,-999,-999.0,0.0,91,0.00,,---,0.04,VWS V14.01,2013-07-10 07:47:00,
2013-07-10 03:52:00,70.7,67.9,29.90,North,-999,-999.0,0.0,91,0.00,,---,0.04,VWS V14.01,2013-07-10 07:52:00,
2013-07-10 03:57:00,70.9,68.2,29.90,North,-999,-999.0,0.0,91,0.00,,---,0.04,VWS V14.01,2013-07-10 07:57:00,
2013-07-10 04:02:00,70.7,67.9,29.90,North,-999,-999.0,0.0,91,0.00,,---,0.04,VWS V14.01,2013-07-10 08:02:00,
2013-07-10 04:08:00,70.7,67.9,29.90,North,-999,-999.0,0.0,91,0.00,,---,0.04,VWS V14.01,2013-07-10 08:08:00,
2013-07-10 04:13:00,70.9,68.2,29.90,North,-999,-999.0,0.0,91,0.00,,---,0.04,VWS V14.01,2013-07-10 08:13:00,
2013-07-10 04:18:00,70.9,68.2,29.90,North,-999,-999.0,0.0,91,0.00,,---,0.04,VWS V14.01,2013-07-10 08:18:00,
2013-07-10 04:23:00,70.9,68.2,29.91,North,-999,-999.0,0.0,91,0.00,,---,0.04,VWS V14.01,2013-07-10 08:23:00,
2013-07-10 04:28:00,70.9,68.2,29.91,North,-999,-999.0,0.0,91,0.00,,---,0.04,VWS V14.01,2013-07-10 08:28:00,
2013-07-10 04:33:00,70.9,68.2,29.91,North,-999,-999.0,0.0,91,0.00,,---,0.04,VWS V14.01,2013-07-10 08:33:00,
2013-07-10 04:38:00,70.9,68.2,29.91,North,-999,-999.0,0.0,91,0.00,,---,0.04,VWS V14.01,2013-07-10 08:38:00,
2013-07-10 04:43:00,70.7,67.9,29.91,North,-999,-999.0,0.0,91,0.00,,---,0.04,VWS V14.01,2013-07-10 08:43:00,
2013-07-10 04:48:00,70.7,67.9,29.91,North,-999,-999.0,0.0,91,0.00,,---,0.04,VWS V14.01,2013-07-10 08:48:00,
2013-07-10 04:53:00,70.7,67.9,29.90,North,-999,-999.0,0.0,91,0.00,,---,0.04,VWS V14.01,2013-07-10 08:53:00,
2013-07-10 04:58:00,70.7,67.9,29.90,North,-999,-999.0,0.0,91,0.00,,---,0.04,VWS V14.01,2013-07-10 08:58:00,
2013-07-10 05:03:00,70.7,67.9,29.91,North,-999,-999.0,0.0,91,0.00,,---,0.04,VWS V14.01,2013-07-10 09:03:00,
2013-07-10 05:09:00,70.7,67.9,29.90,North,-999,-999.0,0.0,91,0.00,,---,0.04,VWS V14.01,2013-07-10 09:09:00,
2013-07-10 05:14:00,70.6,67.8,29.90,North,-999,-999.0,0.0,91,0.00,,---,0.04,VWS V14.01,2013-07-10 09:14:00,
2013-07-10 05:19:00,70.7,67.9,29.90,North,-999,-999.0,0.0,91,0.00,,---,0.04,VWS V14.01,2013-07-10 09:19:00,
2013-07-10 05:24:00,70.7,67.9,29.90,North,-999,-999.0,0.0,91,0.00,,---,0.04,VWS V14.01,2013-07-10 09:24:00,
2013-07-10 05:29:00,70.6,67.8,29.90,North,-999,-999.0,0.0,91,0.00,,---,0.04,VWS V14.01,2013-07-10 09:29:00,
2013-07-10 05:34:00,70.6,67.8,29.89,North,-999,-999.0,0.0,91,0.00,,---,0.04,VWS V14.01,2013-07-10 09:34:00,
2013-07-10 05:39:00,70.2,67.4,29.89,North,-999,-999.0,0.0,91,0.00,,---,0.04,VWS V14.01,2013-07-10 09:39:00,
2013-07-10 05:44:00,70.2,67.4,29.89,North,-999,-999.0,0.0,91,0.00,,---,0.04,VWS V14.01,2013-07-10 09:44:00,
2013-07-10 05:49:00,70.2,67.4,29.89,North,-999,-999.0,0.0,91,0.00,,---,0.04,VWS V14.01,2013-07-10 09:49:00,
2013-07-10 05:54:00,70.0,67.3,29.89,North,-999,-999.0,0.0,91,0.00,,---,0.04,VWS V14.01,2013-07-10 09:54:00,
2013-07-10 05:59:00,70.0,67.3,29.89,North,-999,-999.0,0.0,91,0.00,,---,0.04,VWS V14.01,2013-07-10 09:59:00,
2013-07-10 06:04:00,69.8,67.1,29.90,North,-999,-999.0,0.0,91,0.00,,---,0.04,VWS V14.01,2013-07-10 10:04:00,
2013-07-10 06:10:00,69.8,67.1,29.90,North,-999,-999.0,0.0,91,0.00,,---,0.04,VWS V14.01,2013-07-10 10:10:00,
2013-07-10 06:15:00,69.8,67.1,29.90,North,-999,-999.0,0.0,91,0.00,,---,0.04,VWS V14.01,2013-07-10 10:15:00,
2013-07-10 06:20:00,69.8,67.1,29.90,North,-999,-999.0,0.0,91,0.00,,---,0.04,VWS V14.01,2013-07-10 10:20:00,
2013-07-10 06:25:00,69.8,67.1,29.90,North,-999,-999.0,0.0,91,0.00,,---,0.04,VWS V14.01,2013-07-10 10:25:00,
2013-07-10 06:30:00,69.8,67.1,29.90,North,-999,-999.0,0.0,91,0.00,,---,0.04,VWS V14.01,2013-07-10 10:30:00,
2013-07-10 06:35:00,69.8,67.1,29.90,North,-999,-999.0,0.0,91,0.00,,---,0.04,VWS V14.01,2013-07-10 10:35:00,
2013-07-10 06:40:00,70.0,67.3,29.90,North,-999,-999.0,0.0,91,0.00,,---,0.04,VWS V14.01,2013-07-10 10:40:00,
2013-07-10 06:45:00,70.0,67.3,29.90,North,-999,-999.0,0.0,91,0.00,,---,0.04,VWS V14.01,2013-07-10 10:45:00,
2013-07-10 06:50:00,70.0,67.3,29.90,North,-999,-999.0,0.0,91,0.00,,---,0.04,VWS V14.01,2013-07-10 10:50:00,
2013-07-10 06:55:00,70.0,67.3,29.90,North,-999,-999.0,0.0,91,0.00,,---,0.04,VWS V14.01,2013-07-10 10:55:00,
2013-07-10 07:00:00,69.8,67.1,29.90,North,-999,-999.0,0.0,91,0.00,,---,0.04,VWS V14.01,2013-07-10 11:00:00,
2013-07-10 07:06:00,70.0,67.3,29.90,North,-999,-999.0,0.0,91,0.00,,---,0.04,VWS V14.01,2013-07-10 11:06:00,
2013-07-10 07:11:00,70.2,67.4,29.90,North,-999,-999.0,0.0,91,0.00,,---,0.04,VWS V14.01,2013-07-10 11:11:00,
2013-07-10 07:16:00,70.2,67.4,29.90,North,-999,-999.0,0.0,91,0.00,,---,0.04,VWS V14.01,2013-07-10 11:16:00,
2013-07-10 07:21:00,70.4,67.7,29.90,North,-999,-999.0,0.0,91,0.00,,---,0.04,VWS V14.01,2013-07-10 11:21:00,
2013-07-10 07:26:00,70.6,68.2,29.90,North,-999,-999.0,0.0,92,0.00,,---,0.04,VWS V14.01,2013-07-10 11:26:00,
2013-07-10 07:31:00,70.7,67.9,29.90,North,-999,-999.0,0.0,91,0.00,,---,0.04,VWS V14.01,2013-07-10 11:31:00,
2013-07-10 07:36:00,70.9,68.5,29.90,North,-999,-999.0,0.0,92,0.00,,---,0.04,VWS V14.01,2013-07-10 11:36:00,
2013-07-10 07:41:00,70.9,68.5,29.90,North,-999,-999.0,0.0,92,0.00,,---,0.04,VWS V14.01,2013-07-10 11:41:00,
2013-07-10 07:46:00,70.9,68.5,29.91,North,-999,-999.0,0.0,92,0.00,,---,0.04,VWS V14.01,2013-07-10 11:46:00,
2013-07-10 07:51:00,70.9,68.5,29.91,North,-999,-999.0,0.0,92,0.00,,---,0.04,VWS V14.01,2013-07-10 11:51:00,
2013-07-10 07:56:00,70.9,68.2,29.91,North,-999,-999.0,0.0,91,0.00,,---,0.04,VWS V14.01,2013-07-10 11:56:00,
2013-07-10 08:01:00,71.1,68.7,29.91,North,-999,-999.0,0.0,92,0.00,,---,0.04,VWS V14.01,2013-07-10 12:01:00,
2013-07-10 08:06:00,71.5,68.7,29.91,North,-999,-999.0,0.0,91,0.00,,---,0.04,VWS V14.01,2013-07-10 12:06:00,
2013-07-10 08:12:00,71.6,68.8,29.90,North,-999,-999.0,0.0,91,0.00,,---,0.04,VWS V14.01,2013-07-10 12:12:00,
2013-07-10 08:17:00,71.6,68.8,29.91,North,-999,-999.0,0.0,91,0.00,,---,0.04,VWS V14.01,2013-07-10 12:17:00,
2013-07-10 08:22:00,71.6,68.8,29.91,North,-999,-999.0,0.0,91,0.00,,---,0.04,VWS V14.01,2013-07-10 12:22:00,
2013-07-10 08:27:00,71.6,68.8,29.91,North,-999,-999.0,0.0,91,0.00,,---,0.04,VWS V14.01,2013-07-10 12:27:00,
2013-07-10 08:32:00,71.6,68.8,29.91,North,-999,-999.0,0.0,91,0.00,,---,0.04,VWS V14.01,2013-07-10 12:32:00,
2013-07-10 08:37:00,71.8,69.0,29.92,North,-999,-999.0,0.0,91,0.01,,---,0.05,VWS V14.01,2013-07-10 12:37:00,
2013-07-10 08:42:00,71.8,69.0,29.92,North,-999,-999.0,0.0,91,0.01,,---,0.05,VWS V14.01,2013-07-10 12:42:00,
2013-07-10 08:47:00,72.2,69.4,29.92,North,-999,-999.0,0.0,91,0.01,,---,0.05,VWS V14.01,2013-07-10 12:47:00,
2013-07-10 08:52:00,72.5,69.7,29.92,North,-999,-999.0,0.0,91,0.01,,---,0.05,VWS V14.01,2013-07-10 12:52:00,
2013-07-10 08:57:00,72.9,70.1,29.92,North,-999,-999.0,0.0,91,0.01,,---,0.05,VWS V14.01,2013-07-10 12:57:00,
2013-07-10 09:02:00,73.1,70.3,29.92,North,-999,-999.0,0.0,91,0.01,,---,0.05,VWS V14.01,2013-07-10 13:02:00,
2013-07-10 09:08:00,73.1,70.3,29.92,North,-999,-999.0,0.0,91,0.01,,---,0.05,VWS V14.01,2013-07-10 13:08:00,
2013-07-10 09:13:00,72.9,70.1,29.92,North,-999,-999.0,0.0,91,0.01,,---,0.05,VWS V14.01,2013-07-10 13:13:00,
2013-07-10 09:18:00,72.9,70.1,29.92,North,-999,-999.0,0.0,91,0.01,,---,0.05,VWS V14.01,2013-07-10 13:18:00,
2013-07-10 09:23:00,73.4,70.9,29.92,North,-999,-999.0,0.0,92,0.01,,---,0.05,VWS V14.01,2013-07-10 13:23:00,
2013-07-10 09:28:00,73.8,71.0,29.92,North,-999,-999.0,0.0,91,0.01,,---,0.05,VWS V14.01,2013-07-10 13:28:00,
2013-07-10 09:33:00,74.0,71.2,29.92,North,-999,-999.0,0.0,91,0.01,,---,0.05,VWS V14.01,2013-07-10 13:33:00,
2013-07-10 09:38:00,74.2,71.1,29.92,North,-999,-999.0,0.0,90,0.00,,---,0.05,VWS V14.01,2013-07-10 13:38:00,
2013-07-10 09:43:00,74.2,71.1,29.92,North,-999,-999.0,0.0,90,0.00,,---,0.05,VWS V14.01,2013-07-10 13:43:00,
2013-07-10 09:48:00,74.3,70.8,29.92,North,-999,-999.0,0.0,89,0.00,,---,0.05,VWS V14.01,2013-07-10 13:48:00,
2013-07-10 09:53:00,74.2,70.8,29.92,North,-999,-999.0,0.0,89,0.00,,---,0.05,VWS V14.01,2013-07-10 13:53:00,
2013-07-10 09:58:00,74.5,71.1,29.91,North,-999,-999.0,0.0,89,0.00,,---,0.05,VWS V14.01,2013-07-10 13:58:00,
2013-07-10 10:03:00,74.5,71.1,29.91,North,-999,-999.0,0.0,89,0.00,,---,0.05,VWS V14.01,2013-07-10 14:03:00,
2013-07-10 10:09:00,74.7,71.2,29.91,North,-999,-999.0,0.0,89,0.00,,---,0.05,VWS V14.01,2013-07-10 14:09:00,
2013-07-10 10:14:00,75.1,71.3,29.91,North,-999,-999.0,0.0,88,0.00,,---,0.05,VWS V14.01,2013-07-10 14:14:00,
2013-07-10 10:19:00,75.2,71.1,29.91,North,-999,-999.0,0.0,87,0.00,,---,0.05,VWS V14.01,2013-07-10 14:19:00,
2013-07-10 10:24:00,76.0,71.9,29.91,North,-999,-999.0,0.0,87,0.00,,---,0.05,VWS V14.01,2013-07-10 14:24:00,
2013-07-10 10:29:00,76.7,72.2,29.91,North,-999,-999.0,0.0,86,0.00,,---,0.05,VWS V14.01,2013-07-10 14:29:00,
2013-07-10 10:34:00,76.7,71.9,29.91,North,-999,-999.0,0.0,85,0.00,,---,0.05,VWS V14.01,2013-07-10 14:34:00,
2013-07-10 10:39:00,77.0,72.2,29.91,North,-999,-999.0,0.0,85,0.00,,---,0.05,VWS V14.01,2013-07-10 14:39:00,
2013-07-10 10:44:00,78.1,73.2,29.91,North,-999,-999.0,0.0,85,0.00,,---,0.05,VWS V14.01,2013-07-10 14:44:00,
2013-07-10 10:49:00,78.3,72.7,29.91,North,-999,-999.0,0.0,83,0.00,,---,0.05,VWS V14.01,2013-07-10 14:49:00,
2013-07-10 10:54:00,78.5,72.9,29.91,North,-999,-999.0,0.0,83,0.00,,---,0.05,VWS V14.01,2013-07-10 14:54:00,
2013-07-10 10:59:00,78.7,72.4,29.91,North,-999,-999.0,0.0,81,0.00,,---,0.05,VWS V14.01,2013-07-10 14:59:00,
2013-07-10 11:05:00,78.1,71.8,29.91,North,-999,-999.0,0.0,81,0.00,,---,0.05,VWS V14.01,2013-07-10 15:05:00,
2013-07-10 11:11:00,78.1,71.8,29.91,North,-999,-999.0,0.0,81,0.00,,---,0.05,VWS V14.01,2013-07-10 15:11:00,
2013-07-10 11:16:00,78.3,72.0,29.91,North,-999,-999.0,0.0,81,0.00,,---,0.05,VWS V14.01,2013-07-10 15:16:00,
2013-07-10 11:21:00,78.5,72.2,29.91,North,-999,-999.0,0.0,81,0.00,,---,0.05,VWS V14.01,2013-07-10 15:21:00,
2013-07-10 11:26:00,78.8,72.5,29.91,North,-999,-999.0,0.0,81,0.00,,---,0.05,VWS V14.01,2013-07-10 15:26:00,
2013-07-10 11:31:00,79.7,73.0,29.91,North,-999,-999.0,0.0,80,0.00,,---,0.05,VWS V14.01,2013-07-10 15:31:00,
2013-07-10 11:36:00,79.9,72.8,29.91,North,-999,-999.0,0.0,79,0.00,,---,0.05,VWS V14.01,2013-07-10 15:36:00,
2013-07-10 11:41:00,80.5,73.4,29.91,North,-999,-999.0,0.0,79,0.00,,---,0.05,VWS V14.01,2013-07-10 15:41:00,
2013-07-10 11:46:00,80.8,73.3,29.91,North,-999,-999.0,0.0,78,0.00,,---,0.05,VWS V14.01,2013-07-10 15:46:00,
2013-07-10 11:51:00,81.0,73.5,29.91,North,-999,-999.0,0.0,78,0.00,,---,0.05,VWS V14.01,2013-07-10 15:51:00,
2013-07-10 11:56:00,81.4,73.5,29.91,North,-999,-999.0,0.0,77,0.00,,---,0.05,VWS V14.01,2013-07-10 15:56:00,
2013-07-10 12:01:00,81.9,74.8,29.90,North,-999,-999.0,0.0,79,0.00,,---,0.05,VWS V14.01,2013-07-10 16:01:00,
2013-07-10 12:07:00,82.1,74.2,29.90,North,-999,-999.0,0.0,77,0.00,,---,0.05,VWS V14.01,2013-07-10 16:07:00,
2013-07-10 12:12:00,81.7,73.8,29.90,North,-999,-999.0,0.0,77,0.00,,---,0.05,VWS V14.01,2013-07-10 16:12:00,
2013-07-10 12:17:00,81.9,74.0,29.90,North,-999,-999.0,0.0,77,0.00,,---,0.05,VWS V14.01,2013-07-10 16:17:00,
2013-07-10 12:22:00,82.3,74.4,29.90,North,-999,-999.0,0.0,77,0.00,,---,0.05,VWS V14.01,2013-07-10 16:22:00,
2013-07-10 12:27:00,82.4,74.5,29.90,North,-999,-999.0,0.0,77,0.00,,---,0.05,VWS V14.01,2013-07-10 16:27:00,
2013-07-10 12:32:00,82.4,74.1,29.90,North,-999,-999.0,0.0,76,0.00,,---,0.05,VWS V14.01,2013-07-10 16:32:00,
2013-07-10 12:37:00,82.6,74.7,29.90,North,-999,-999.0,0.0,77,0.00,,---,0.05,VWS V14.01,2013-07-10 16:37:00,
2013-07-10 12:42:00,82.4,74.1,29.90,North,-999,-999.0,0.0,76,0.00,,---,0.05,VWS V14.01,2013-07-10 16:42:00,
2013-07-10 12:47:00,82.8,74.5,29.90,North,-999,-999.0,0.0,76,0.00,,---,0.05,VWS V14.01,2013-07-10 16:47:00,
2013-07-10 12:52:00,83.2,74.5,29.89,North,-999,-999.0,0.0,75,0.00,,---,0.05,VWS V14.01,2013-07-10 16:52:00,
2013-07-10 12:57:00,84.2,74.6,29.89,North,-999,-999.0,0.0,73,0.00,,---,0.05,VWS V14.01,2013-07-10 16:57:00,
2013-07-10 13:02:00,85.0,75.0,29.89,North,-999,-999.0,0.0,72,0.00,,---,0.05,VWS V14.01,2013-07-10 17:02:00,
2013-07-10 13:07:00,85.0,75.0,29.89,North,-999,-999.0,0.0,72,0.00,,---,0.05,VWS V14.01,2013-07-10 17:07:00,
2013-07-10 13:13:00,84.6,74.6,29.88,North,-999,-999.0,0.0,72,0.00,,---,0.05,VWS V14.01,2013-07-10 17:13:00,
2013-07-10 13:18:00,83.5,73.5,29.88,North,-999,-999.0,0.0,72,0.00,,---,0.05,VWS V14.01,2013-07-10 17:18:00,
2013-07-10 13:23:00,83.9,74.3,29.88,North,-999,-999.0,0.0,73,0.00,,---,0.05,VWS V14.01,2013-07-10 17:23:00,
2013-07-10 13:28:00,83.9,74.3,29.88,North,-999,-999.0,0.0,73,0.00,,---,0.05,VWS V14.01,2013-07-10 17:28:00,
2013-07-10 13:33:00,85.1,75.5,29.87,North,-999,-999.0,0.0,73,0.00,,---,0.05,VWS V14.01,2013-07-10 17:33:00,
2013-07-10 13:38:00,87.1,77.0,29.87,North,-999,-999.0,0.0,72,0.00,,---,0.05,VWS V14.01,2013-07-10 17:38:00,
2013-07-10 13:43:00,88.9,77.8,29.87,North,-999,-999.0,0.0,70,0.00,,---,0.05,VWS V14.01,2013-07-10 17:43:00,
2013-07-10 13:45:00,89.3,77.4,29.87,North,-999,-999.0,0.0,68,0.00,,---,0.05,VWS V14.01,2013-07-10 17:45:00,
2013-07-10 13:50:00,89.1,76.7,29.86,North,-999,-999.0,0.0,67,0.00,,---,0.05,VWS V14.01,2013-07-10 17:50:00,
2013-07-10 13:55:00,89.6,77.6,29.85,North,-999,-999.0,0.0,68,0.00,,---,0.05,VWS V14.01,2013-07-10 17:55:00,
2013-07-10 14:01:00,89.6,75.8,29.85,North,-999,-999.0,0.0,64,0.00,,---,0.05,VWS V14.01,2013-07-10 18:01:00,
2013-07-10 14:06:00,88.6,76.2,29.85,North,-999,-999.0,0.0,67,0.00,,---,0.05,VWS V14.01,2013-07-10 18:06:00,
2013-07-10 14:11:00,90.4,76.1,29.85,North,-999,-999.0,0.0,63,0.00,,---,0.05,VWS V14.01,2013-07-10 18:11:00,
2013-07-10 14:16:00,90.5,77.1,29.84,North,-999,-999.0,0.0,65,0.00,,---,0.05,VWS V14.01,2013-07-10 18:16:00,
2013-07-10 14:21:00,91.1,76.8,29.84,North,-999,-999.0,0.0,63,0.00,,---,0.05,VWS V14.01,2013-07-10 18:21:00,
2013-07-10 14:26:00,91.3,76.5,29.84,North,-999,-999.0,0.0,62,0.00,,---,0.05,VWS V14.01,2013-07-10 18:26:00,
2013-07-10 14:31:00,90.0,75.7,29.84,North,-999,-999.0,0.0,63,0.00,,---,0.05,VWS V14.01,2013-07-10 18:31:00,
2013-07-10 14:36:00,89.8,76.0,29.84,North,-999,-999.0,0.0,64,0.00,,---,0.05,VWS V14.01,2013-07-10 18:36:00,
2013-07-10 14:41:00,90.7,76.4,29.83,North,-999,-999.0,0.0,63,0.00,,---,0.05,VWS V14.01,2013-07-10 18:41:00,
2013-07-10 14:46:00,90.0,76.2,29.83,North,-999,-999.0,0.0,64,0.00,,---,0.05,VWS V14.01,2013-07-10 18:46:00,
2013-07-10 14:51:00,90.7,76.4,29.83,North,-999,-999.0,0.0,63,0.00,,---,0.05,VWS V14.01,2013-07-10 18:51:00,
2013-07-10 14:56:00,92.2,77.3,29.83,North,-999,-999.0,0.0,62,0.00,,---,0.05,VWS V14.01,2013-07-10 18:56:00,
2013-07-10 15:00:00,92.2,76.8,29.83,North,-999,-999.0,0.0,61,0.00,,---,0.05,VWS V14.01,2013-07-10 19:00:00,
2013-07-10 15:06:00,92.0,76.6,29.83,North,-999,-999.0,0.0,61,0.00,,---,0.05,VWS V14.01,2013-07-10 19:06:00,
2013-07-10 15:11:00,92.2,76.3,29.82,North,-999,-999.0,0.0,60,0.00,,---,0.05,VWS V14.01,2013-07-10 19:11:00,
2013-07-10 15:16:00,93.2,75.7,29.82,North,-999,-999.0,0.0,57,0.00,,---,0.05,VWS V14.01,2013-07-10 19:16:00,
2013-07-10 15:21:00,93.2,76.8,29.82,North,-999,-999.0,0.0,59,0.00,,---,0.05,VWS V14.01,2013-07-10 19:21:00,
2013-07-10 15:26:00,94.1,76.0,29.82,North,-999,-999.0,0.0,56,0.00,,---,0.05,VWS V14.01,2013-07-10 19:26:00,
2013-07-10 15:31:00,92.0,74.6,29.82,North,-999,-999.0,0.0,57,0.00,,---,0.05,VWS V14.01,2013-07-10 19:31:00,
2013-07-10 15:36:00,91.6,75.2,29.82,North,-999,-999.0,0.0,59,0.00,,---,0.05,VWS V14.01,2013-07-10 19:36:00,
2013-07-10 15:41:00,91.4,75.6,29.82,North,-999,-999.0,0.0,60,0.00,,---,0.05,VWS V14.01,2013-07-10 19:41:00,
2013-07-10 15:46:00,91.3,74.5,29.82,North,-999,-999.0,0.0,58,0.00,,---,0.05,VWS V14.01,2013-07-10 19:46:00,
2013-07-10 15:51:00,89.5,73.8,29.81,North,-999,-999.0,0.0,60,0.00,,---,0.05,VWS V14.01,2013-07-10 19:51:00,
2013-07-10 15:56:00,90.4,75.6,29.81,North,-999,-999.0,0.0,62,0.00,,---,0.05,VWS V14.01,2013-07-10 19:56:00,
2013-07-10 16:02:00,91.8,75.9,29.81,North,-999,-999.0,0.0,60,0.00,,---,0.05,VWS V14.01,2013-07-10 20:02:00,
2013-07-10 16:07:00,92.9,75.9,29.81,North,-999,-999.0,0.0,58,0.00,,---,0.05,VWS V14.01,2013-07-10 20:07:00,
2013-07-10 16:12:00,92.7,75.2,29.80,North,-999,-999.0,0.0,57,0.00,,---,0.05,VWS V14.01,2013-07-10 20:12:00,
2013-07-10 16:17:00,92.7,75.8,29.80,North,-999,-999.0,0.0,58,0.00,,---,0.05,VWS V14.01,2013-07-10 20:17:00,
2013-07-10 16:22:00,94.3,77.3,29.80,North,-999,-999.0,0.0,58,0.00,,---,0.05,VWS V14.01,2013-07-10 20:22:00,
2013-07-10 16:27:00,94.5,75.8,29.81,North,-999,-999.0,0.0,55,0.00,,---,0.05,VWS V14.01,2013-07-10 20:27:00,
2013-07-10 16:32:00,93.2,75.2,29.80,North,-999,-999.0,0.0,56,0.00,,---,0.05,VWS V14.01,2013-07-10 20:32:00,
2013-07-10 16:37:00,93.8,76.3,29.80,North,-999,-999.0,0.0,57,0.00,,---,0.05,VWS V14.01,2013-07-10 20:37:00,
2013-07-10 16:42:00,95.0,76.8,29.80,North,-999,-999.0,0.0,56,0.00,,---,0.05,VWS V14.01,2013-07-10 20:42:00,
2013-07-10 16:47:00,95.2,75.4,29.80,North,-999,-999.0,0.0,53,0.00,,---,0.05,VWS V14.01,2013-07-10 20:47:00,
2013-07-10 16:52:00,93.2,74.6,29.80,North,-999,-999.0,0.0,55,0.00,,---,0.05,VWS V14.01,2013-07-10 20:52:00,
2013-07-10 16:57:00,93.2,75.2,29.79,North,-999,-999.0,0.0,56,0.00,,---,0.05,VWS V14.01,2013-07-10 20:57:00,
2013-07-10 17:02:00,92.0,74.6,29.79,North,-999,-999.0,0.0,57,0.00,,---,0.05,VWS V14.01,2013-07-10 21:02:00,
2013-07-10 17:08:00,91.1,74.8,29.79,North,-999,-999.0,0.0,59,0.00,,---,0.05,VWS V14.01,2013-07-10 21:08:00,
2013-07-10 17:13:00,90.5,75.2,29.79,North,-999,-999.0,0.0,61,0.00,,---,0.05,VWS V14.01,2013-07-10 21:13:00,
2013-07-10 17:18:00,91.8,75.9,29.79,North,-999,-999.0,0.0,60,0.00,,---,0.05,VWS V14.01,2013-07-10 21:18:00,
2013-07-10 17:23:00,90.2,74.9,29.78,North,-999,-999.0,0.0,61,0.00,,---,0.05,VWS V14.01,2013-07-10 21:23:00,
2013-07-10 17:28:00,89.3,75.5,29.78,North,-999,-999.0,0.0,64,0.00,,---,0.05,VWS V14.01,2013-07-10 21:28:00,
2013-07-10 17:33:00,90.0,76.2,29.79,North,-999,-999.0,0.0,64,0.00,,---,0.05,VWS V14.01,2013-07-10 21:33:00,
2013-07-10 17:38:00,90.0,75.7,29.79,North,-999,-999.0,0.0,63,0.00,,---,0.05,VWS V14.01,2013-07-10 21:38:00,
2013-07-10 17:43:00,88.6,74.9,29.80,North,-999,-999.0,0.0,64,0.00,,---,0.05,VWS V14.01,2013-07-10 21:43:00,
2013-07-10 17:48:00,86.9,74.6,29.79,North,-999,-999.0,0.0,67,0.00,,---,0.05,VWS V14.01,2013-07-10 21:48:00,
2013-07-10 17:53:00,87.3,75.4,29.79,North,-999,-999.0,0.0,68,0.00,,---,0.05,VWS V14.01,2013-07-10 21:53:00,
2013-07-10 17:58:00,87.7,75.4,29.78,North,-999,-999.0,0.0,67,0.00,,---,0.05,VWS V14.01,2013-07-10 21:58:00,
2013-07-10 18:04:00,88.7,76.3,29.78,North,-999,-999.0,0.0,67,0.00,,---,0.05,VWS V14.01,2013-07-10 22:04:00,
2013-07-10 18:09:00,88.2,75.4,29.78,North,-999,-999.0,0.0,66,0.00,,---,0.05,VWS V14.01,2013-07-10 22:09:00,
2013-07-10 18:14:00,87.3,75.0,29.78,North,-999,-999.0,0.0,67,0.00,,---,0.05,VWS V14.01,2013-07-10 22:14:00,
2013-07-10 18:19:00,86.0,74.2,29.78,North,-999,-999.0,0.0,68,0.00,,---,0.05,VWS V14.01,2013-07-10 22:19:00,
2013-07-10 18:24:00,86.0,74.2,29.78,North,-999,-999.0,0.0,68,0.00,,---,0.05,VWS V14.01,2013-07-10 22:24:00,
2013-07-10 18:29:00,85.5,74.2,29.79,North,-999,-999.0,0.0,69,0.00,,---,0.05,VWS V14.01,2013-07-10 22:29:00,
2013-07-10 18:34:00,84.6,74.2,29.79,North,-999,-999.0,0.0,71,0.00,,---,0.05,VWS V14.01,2013-07-10 22:34:00,
2013-07-10 18:39:00,83.7,73.7,29.79,North,-999,-999.0,0.0,72,0.00,,---,0.05,VWS V14.01,2013-07-10 22:39:00,
2013-07-10 18:44:00,83.7,74.1,29.79,North,-999,-999.0,0.0,73,0.00,,---,0.05,VWS V14.01,2013-07-10 22:44:00,
2013-07-10 18:49:00,83.5,73.9,29.79,North,-999,-999.0,0.0,73,0.00,,---,0.05,VWS V14.01,2013-07-10 22:49:00,
2013-07-10 18:54:00,83.5,73.9,29.79,North,-999,-999.0,0.0,73,0.00,,---,0.05,VWS V14.01,2013-07-10 22:54:00,
2013-07-10 18:59:00,83.3,73.8,29.79,North,-999,-999.0,0.0,73,0.00,,---,0.05,VWS V14.01,2013-07-10 22:59:00,
2013-07-10 19:05:00,83.2,74.1,29.79,North,-999,-999.0,0.0,74,0.00,,---,0.05,VWS V14.01,2013-07-10 23:05:00,
2013-07-10 19:10:00,83.0,73.9,29.79,North,-999,-999.0,0.0,74,0.00,,---,0.05,VWS V14.01,2013-07-10 23:10:00,
2013-07-10 19:15:00,82.8,74.1,29.79,North,-999,-999.0,0.0,75,0.00,,---,0.05,VWS V14.01,2013-07-10 23:15:00,
2013-07-10 19:20:00,82.4,73.7,29.79,North,-999,-999.0,0.0,75,0.00,,---,0.05,VWS V14.01,2013-07-10 23:20:00,
2013-07-10 19:25:00,82.1,73.8,29.79,North,-999,-999.0,0.0,76,0.00,,---,0.05,VWS V14.01,2013-07-10 23:25:00,
2013-07-10 19:30:00,82.1,73.8,29.79,North,-999,-999.0,0.0,76,0.00,,---,0.05,VWS V14.01,2013-07-10 23:30:00,
2013-07-10 19:35:00,81.9,73.6,29.79,North,-999,-999.0,0.0,76,0.00,,---,0.05,VWS V14.01,2013-07-10 23:35:00,
2013-07-10 19:40:00,81.5,73.2,29.80,North,-999,-999.0,0.0,76,0.00,,---,0.05,VWS V14.01,2013-07-10 23:40:00,
2013-07-10 19:45:00,81.4,72.7,29.80,North,-999,-999.0,0.0,75,0.00,,---,0.05,VWS V14.01,2013-07-10 23:45:00,
2013-07-10 19:50:00,81.2,72.1,29.81,North,-999,-999.0,0.0,74,0.00,,---,0.05,VWS V14.01,2013-07-10 23:50:00,
2013-07-10 19:55:00,80.8,71.3,29.80,North,-999,-999.0,0.0,73,0.00,,---,0.05,VWS V14.01,2013-07-10 23:55:00,
2013-07-10 20:01:00,80.5,71.5,29.80,North,-999,-999.0,0.0,74,0.00,,---,0.05,VWS V14.01,2013-07-11 00:01:00,
2013-07-10 20:06:00,80.3,71.3,29.80,North,-999,-999.0,0.0,74,0.00,,---,0.05,VWS V14.01,2013-07-11 00:06:00,
2013-07-10 20:11:00,79.9,70.9,29.80,North,-999,-999.0,0.0,74,0.00,,---,0.05,VWS V14.01,2013-07-11 00:11:00,
2013-07-10 20:16:00,79.9,70.9,29.81,North,-999,-999.0,0.0,74,0.00,,---,0.05,VWS V14.01,2013-07-11 00:16:00,
2013-07-10 20:21:00,79.6,71.0,29.80,North,-999,-999.0,0.0,75,0.00,,---,0.05,VWS V14.01,2013-07-11 00:21:00,
2013-07-10 20:26:00,79.0,70.4,29.80,North,-999,-999.0,0.0,75,0.00,,---,0.05,VWS V14.01,2013-07-11 00:26:00,
2013-07-10 20:31:00,78.7,70.1,29.81,North,-999,-999.0,0.0,75,0.00,,---,0.05,VWS V14.01,2013-07-11 00:31:00,
2013-07-10 20:36:00,78.5,69.9,29.81,North,-999,-999.0,0.0,75,0.00,,---,0.05,VWS V14.01,2013-07-11 00:36:00,
2013-07-10 20:41:00,78.5,70.3,29.81,North,-999,-999.0,0.0,76,0.00,,---,0.05,VWS V14.01,2013-07-11 00:41:00,
2013-07-10 20:46:00,78.5,70.3,29.81,North,-999,-999.0,0.0,76,0.00,,---,0.05,VWS V14.01,2013-07-11 00:46:00,
2013-07-10 20:51:00,78.3,70.1,29.81,North,-999,-999.0,0.0,76,0.00,,---,0.05,VWS V14.01,2013-07-11 00:51:00,
2013-07-10 20:56:00,78.1,70.3,29.81,North,-999,-999.0,0.0,77,0.00,,---,0.05,VWS V14.01,2013-07-11 00:56:00,
2013-07-10 21:02:00,77.4,70.0,29.82,North,-999,-999.0,0.0,78,0.00,,---,0.05,VWS V14.01,2013-07-11 01:02:00,
2013-07-10 21:07:00,76.9,69.9,29.82,North,-999,-999.0,0.0,79,0.00,,---,0.05,VWS V14.01,2013-07-11 01:07:00,
2013-07-10 21:12:00,76.7,70.1,29.82,North,-999,-999.0,0.0,80,0.00,,---,0.05,VWS V14.01,2013-07-11 01:12:00,
2013-07-10 21:17:00,76.3,70.1,29.82,North,-999,-999.0,0.0,81,0.00,,---,0.05,VWS V14.01,2013-07-11 01:17:00,
2013-07-10 21:22:00,76.0,69.8,29.82,North,-999,-999.0,0.0,81,0.00,,---,0.05,VWS V14.01,2013-07-11 01:22:00,
2013-07-10 21:27:00,76.0,69.8,29.81,North,-999,-999.0,0.0,81,0.00,,---,0.05,VWS V14.01,2013-07-11 01:27:00,
2013-07-10 21:32:00,76.0,70.1,29.81,North,-999,-999.0,0.0,82,0.00,,---,0.05,VWS V14.01,2013-07-11 01:32:00,
2013-07-10 21:37:00,75.8,70.3,29.81,North,-999,-999.0,0.0,83,0.00,,---,0.05,VWS V14.01,2013-07-11 01:37:00,
2013-07-10 21:42:00,75.6,70.1,29.82,North,-999,-999.0,0.0,83,0.00,,---,0.05,VWS V14.01,2013-07-11 01:42:00,
2013-07-10 21:47:00,75.6,70.1,29.82,North,-999,-999.0,0.0,83,0.00,,---,0.05,VWS V14.01,2013-07-11 01:47:00,
2013-07-10 21:52:00,75.4,69.9,29.82,North,-999,-999.0,0.0,83,0.00,,---,0.05,VWS V14.01,2013-07-11 01:52:00,
2013-07-10 21:57:00,75.4,69.9,29.82,North,-999,-999.0,0.0,83,0.00,,---,0.05,VWS V14.01,2013-07-11 01:57:00,
2013-07-10 22:03:00,75.4,70.2,29.82,North,-999,-999.0,0.0,84,0.00,,---,0.05,VWS V14.01,2013-07-11 02:03:00,
2013-07-10 22:08:00,75.2,70.0,29.82,North,-999,-999.0,0.0,84,0.00,,---,0.05,VWS V14.01,2013-07-11 02:08:00,
2013-07-10 22:13:00,75.2,70.0,29.82,North,-999,-999.0,0.0,84,0.00,,---,0.05,VWS V14.01,2013-07-11 02:13:00,
2013-07-10 22:18:00,75.2,70.0,29.82,North,-999,-999.0,0.0,84,0.00,,---,0.05,VWS V14.01,2013-07-11 02:18:00,
2013-07-10 22:23:00,75.2,70.0,29.82,North,-999,-999.0,0.0,84,0.00,,---,0.05,VWS V14.01,2013-07-11 02:23:00,
2013-07-10 22:28:00,75.2,70.0,29.82,North,-999,-999.0,0.0,84,0.00,,---,0.05,VWS V14.01,2013-07-11 02:28:00,
2013-07-10 22:33:00,75.1,70.3,29.82,North,-999,-999.0,0.0,85,0.00,,---,0.05,VWS V14.01,2013-07-11 02:33:00,
2013-07-10 22:38:00,74.7,69.9,29.82,North,-999,-999.0,0.0,85,0.00,,---,0.05,VWS V14.01,2013-07-11 02:38:00,
2013-07-10 22:43:00,74.5,69.7,29.82,North,-999,-999.0,0.0,85,0.00,,---,0.05,VWS V14.01,2013-07-11 02:43:00,
2013-07-10 22:48:00,74.5,69.7,29.83,North,-999,-999.0,0.0,85,0.00,,---,0.05,VWS V14.01,2013-07-11 02:48:00,
2013-07-10 22:53:00,74.5,70.0,29.82,North,-999,-999.0,0.0,86,0.00,,---,0.05,VWS V14.01,2013-07-11 02:53:00,
2013-07-10 22:58:00,74.5,69.7,29.82,North,-999,-999.0,0.0,85,0.00,,---,0.05,VWS V14.01,2013-07-11 02:58:00,
2013-07-10 23:04:00,74.5,69.7,29.82,North,-999,-999.0,0.0,85,0.00,,---,0.05,VWS V14.01,2013-07-11 03:04:00,
2013-07-10 23:09:00,74.7,69.9,29.82,North,-999,-999.0,0.0,85,0.00,,---,0.05,VWS V14.01,2013-07-11 03:09:00,
2013-07-10 23:14:00,74.5,69.7,29.82,North,-999,-999.0,0.0,85,0.00,,---,0.05,VWS V14.01,2013-07-11 03:14:00,
2013-07-10 23:19:00,74.5,70.0,29.82,North,-999,-999.0,0.0,86,0.00,,---,0.05,VWS V14.01,2013-07-11 03:19:00,
2013-07-10 23:20:00,74.5,70.0,29.82,North,-999,-999.0,0.0,86,0.00,,---,0.05,VWS V14.01,2013-07-11 03:20:00,
2013-07-10 23:25:00,74.5,70.0,29.81,North,-999,-999.0,0.0,86,0.00,,---,0.05,VWS V14.01,2013-07-11 03:25:00,
2013-07-10 23:30:00,74.5,70.0,29.81,North,-999,-999.0,0.0,86,0.00,,---,0.05,VWS V14.01,2013-07-11 03:30:00,
2013-07-10 23:35:00,74.5,70.0,29.81,North,-999,-999.0,0.0,86,0.00,,---,0.05,VWS V14.01,2013-07-11 03:35:00,
2013-07-10 23:40:00,74.5,70.0,29.81,North,-999,-999.0,0.0,86,0.00,,---,0.05,VWS V14.01,2013-07-11 03:40:00,
2013-07-10 23:45:00,74.5,70.0,29.80,North,-999,-999.0,0.0,86,0.00,,---,0.05,VWS V14.01,2013-07-11 03:45:00,
2013-07-10 23:50:00,74.3,69.8,29.80,North,-999,-999.0,0.0,86,0.00,,---,0.05,VWS V14.01,2013-07-11 03:50:00,
2013-07-10 23:55:00,74.2,69.8,29.80,North,-999,-999.0,0.0,86,0.00,,---,0.05,VWS V14.01,2013-07-11 03:55:00,